createdAt,value
2022-10-21T00:02:04.837Z,85.16
2022-10-21T00:05:07.304Z,85.77
2022-10-21T00:08:09.349Z,85.30
2022-10-21T00:11:11.435Z,85.96
2022-10-21T00:14:13.479Z,85.32
2022-10-21T00:17:15.503Z,85.03
2022-10-21T00:20:17.880Z,84.30
2022-10-21T00:23:19.957Z,85.28
2022-10-21T00:26:22.002Z,85.60
2022-10-21T00:29:24.046Z,85.88
2022-10-21T00:32:26.220Z,86.76
2022-10-21T00:35:28.295Z,85.06
2022-10-21T00:38:31.378Z,85.39
2022-10-21T00:41:33.509Z,85.75
2022-10-21T00:44:36.923Z,85.61
2022-10-21T00:48:15.035Z,85.98
2022-10-21T00:51:17.645Z,85.93
2022-10-21T00:54:19.914Z,84.95
2022-10-21T00:57:22.382Z,84.37
2022-10-21T01:00:24.426Z,83.83
2022-10-21T01:03:26.884Z,81.83
2022-10-21T01:06:28.970Z,81.84
2022-10-21T01:09:31.130Z,82.21
2022-10-21T01:12:56.545Z,83.76
2022-10-21T01:16:25.387Z,83.61
2022-10-21T01:19:54.211Z,84.78
2022-10-21T01:23:34.586Z,85.04
2022-10-21T01:27:06.939Z,84.35
2022-10-21T01:30:42.700Z,84.73
2022-10-21T01:33:48.696Z,84.92
2022-10-21T01:36:54.604Z,83.47
2022-10-21T01:40:04.202Z,81.75
2022-10-21T01:43:24.066Z,83.33
2022-10-21T01:46:39.791Z,82.32
2022-10-21T01:49:57.651Z,82.49
2022-10-21T01:53:04.720Z,82.56
2022-10-21T01:56:07.121Z,81.74
2022-10-21T01:59:09.531Z,81.64
2022-10-21T02:02:11.714Z,81.18
2022-10-21T02:05:20.568Z,81.66
2022-10-21T02:08:22.605Z,80.56
2022-10-21T02:11:24.808Z,79.07
2022-10-21T02:14:42.531Z,80.31
2022-10-21T02:17:52.130Z,80.99
2022-10-21T02:21:03.974Z,79.88
2022-10-21T02:24:07.875Z,79.23
2022-10-21T02:27:09.898Z,79.84
2022-10-21T02:30:11.964Z,79.82
2022-10-21T02:33:24.152Z,79.41
2022-10-21T02:36:59.043Z,80.80
2022-10-21T02:40:15.774Z,81.11
2022-10-21T02:43:33.201Z,80.58
2022-10-21T02:46:41.377Z,80.47
2022-10-21T02:49:44.988Z,82.16
2022-10-21T02:52:47.088Z,81.62
2022-10-21T02:55:49.137Z,83.09
2022-10-21T02:58:51.207Z,83.71
2022-10-21T03:01:53.262Z,83.20
2022-10-21T03:04:55.554Z,82.51
2022-10-21T03:07:57.690Z,83.76
2022-10-21T03:10:59.887Z,82.74
2022-10-21T03:14:01.968Z,81.90
2022-10-21T03:17:04.093Z,82.10
2022-10-21T03:20:06.716Z,81.84
2022-10-21T03:23:08.746Z,81.08
2022-10-21T03:26:10.802Z,81.44
2022-10-21T03:29:12.898Z,83.31
2022-10-21T03:32:14.950Z,82.53
2022-10-21T03:35:17.158Z,81.97
2022-10-21T03:38:19.241Z,82.64
2022-10-21T03:41:21.266Z,82.26
2022-10-21T03:44:23.364Z,81.56
2022-10-21T03:47:25.976Z,82.10
2022-10-21T03:50:28.077Z,82.80
2022-10-21T03:53:42.967Z,82.64
2022-10-21T03:56:46.267Z,82.57
2022-10-21T03:59:48.301Z,84.12
2022-10-21T04:02:50.415Z,84.27
2022-10-21T04:05:52.589Z,83.99
2022-10-21T04:08:54.767Z,83.18
2022-10-21T04:11:56.860Z,82.10
2022-10-21T04:14:59.093Z,81.04
2022-10-21T04:18:01.304Z,80.70
2022-10-21T04:21:03.565Z,80.77
2022-10-21T04:24:05.902Z,79.71
2022-10-21T04:27:07.991Z,79.89
2022-10-21T04:30:10.465Z,79.59
2022-10-21T04:33:12.582Z,79.72
2022-10-21T04:36:14.695Z,80.07
2022-10-21T04:39:16.961Z,80.13
2022-10-21T04:42:19.032Z,80.42
2022-10-21T04:45:21.635Z,80.78
2022-10-21T04:48:23.744Z,80.41
2022-10-21T04:51:25.981Z,81.40
2022-10-21T04:54:28.114Z,83.17
2022-10-21T04:57:30.199Z,81.62
2022-10-21T05:00:32.365Z,80.53
2022-10-21T05:03:35.022Z,79.73
2022-10-21T05:06:37.077Z,79.25
2022-10-21T05:09:39.221Z,79.71
2022-10-21T05:12:41.268Z,80.46
2022-10-21T05:15:43.361Z,79.94
2022-10-21T05:18:45.410Z,79.00
2022-10-21T05:21:47.550Z,78.33
2022-10-21T05:24:49.695Z,79.04
2022-10-21T05:27:51.767Z,79.37
2022-10-21T05:30:53.917Z,78.64
2022-10-21T05:33:55.975Z,80.71
2022-10-21T05:36:58.344Z,80.59
2022-10-21T05:40:00.602Z,80.28
2022-10-21T05:43:02.717Z,79.33
2022-10-21T05:46:05.185Z,80.70
2022-10-21T05:49:07.647Z,79.87
2022-10-21T05:52:09.877Z,79.71
2022-10-21T05:55:11.967Z,79.08
2022-10-21T05:58:14.055Z,79.64
2022-10-21T06:01:16.192Z,78.91
2022-10-21T06:04:18.433Z,78.92
2022-10-21T06:07:20.496Z,79.14
2022-10-21T06:10:26.700Z,80.96
2022-10-21T06:13:31.730Z,81.98
2022-10-21T06:16:36.916Z,83.08
2022-10-21T06:19:38.971Z,82.71
2022-10-21T06:22:41.068Z,84.47
2022-10-21T06:25:44.507Z,83.47
2022-10-21T06:28:46.569Z,84.37
2022-10-21T06:31:48.609Z,85.00
2022-10-21T06:34:50.678Z,85.09
2022-10-21T06:37:52.694Z,84.79
2022-10-21T06:41:01.943Z,82.67
2022-10-21T06:44:04.151Z,82.80
2022-10-21T06:47:06.231Z,83.27
2022-10-21T06:50:08.610Z,84.57
2022-10-21T06:53:10.667Z,86.32
2022-10-21T06:56:16.557Z,86.85
2022-10-21T06:59:18.894Z,84.63
2022-10-21T07:02:21.102Z,84.56
2022-10-21T07:05:23.153Z,83.59
2022-10-21T07:08:46.322Z,84.43
2022-10-21T07:11:49.119Z,83.16
2022-10-21T07:14:51.314Z,82.16
2022-10-21T07:17:53.386Z,81.93
2022-10-21T07:20:56.354Z,82.96
2022-10-21T07:23:59.471Z,83.39
2022-10-21T07:27:01.778Z,82.86
2022-10-21T07:30:04.059Z,82.51
2022-10-21T07:33:06.158Z,82.77
2022-10-21T07:36:10.506Z,83.05
2022-10-21T07:39:14.659Z,81.73
2022-10-21T07:42:16.694Z,81.77
2022-10-21T07:45:18.917Z,82.31
2022-10-21T07:48:23.411Z,82.85
2022-10-21T07:51:28.665Z,82.88
2022-10-21T07:54:32.393Z,83.34
2022-10-21T07:57:34.394Z,83.74
2022-10-21T08:00:36.533Z,83.16
2022-10-21T08:03:38.952Z,83.87
2022-10-21T08:06:41.365Z,83.77
2022-10-21T08:09:43.514Z,84.32
2022-10-21T08:12:45.662Z,82.92
2022-10-21T08:15:50.310Z,83.39
2022-10-21T08:18:52.422Z,84.09
2022-10-21T08:21:54.822Z,84.89
2022-10-21T08:24:56.891Z,85.76
2022-10-21T08:27:58.926Z,84.56
2022-10-21T08:31:06.135Z,84.99
2022-10-21T08:34:08.280Z,86.83
2022-10-21T08:37:10.350Z,87.65
2022-10-21T08:40:12.703Z,87.86
2022-10-21T08:43:25.372Z,87.29
2022-10-21T08:46:32.218Z,86.84
2022-10-21T08:50:00.834Z,88.30
2022-10-21T08:53:07.322Z,88.10
2022-10-21T08:56:18.673Z,88.06
2022-10-21T08:59:23.619Z,88.85
2022-10-21T09:02:30.260Z,88.00
2022-10-21T09:06:15.590Z,88.79
2022-10-21T09:09:39.382Z,87.07
2022-10-21T09:12:51.137Z,87.67
2022-10-21T09:16:14.590Z,87.64
2022-10-21T09:19:55.276Z,88.19
2022-10-21T09:23:11.449Z,87.39
2022-10-21T09:26:41.545Z,87.87
2022-10-21T09:29:45.006Z,86.95
2022-10-21T09:32:59.972Z,88.01
2022-10-21T09:36:36.479Z,87.82
2022-10-21T09:39:42.103Z,87.49
2022-10-21T09:42:48.401Z,87.31
2022-10-21T09:45:50.800Z,88.65
2022-10-21T09:49:23.261Z,89.45
2022-10-21T09:52:18.554Z,89.00
2022-10-21T09:55:20.600Z,88.49
2022-10-21T09:58:38.878Z,87.73
2022-10-21T10:01:42.389Z,88.04
2022-10-21T10:04:44.467Z,87.58
2022-10-21T10:07:46.492Z,87.22
2022-10-21T10:10:48.686Z,86.17
2022-10-21T10:14:36.882Z,85.93
2022-10-21T10:17:39.833Z,87.84
2022-10-21T10:20:41.915Z,86.91
2022-10-21T10:23:52.078Z,86.55
2022-10-21T10:26:54.169Z,87.74
2022-10-21T10:29:56.807Z,86.32
2022-10-21T10:32:59.432Z,86.91
2022-10-21T10:36:09.330Z,87.40
2022-10-21T10:39:22.340Z,88.44
2022-10-21T10:42:31.865Z,86.65
2022-10-21T10:45:34.035Z,86.03
2022-10-21T10:48:43.309Z,85.51
2022-10-21T10:51:47.212Z,85.60
2022-10-21T10:54:49.631Z,86.20
2022-10-21T10:58:06.117Z,84.85
2022-10-21T11:01:18.410Z,86.25
2022-10-21T11:04:32.610Z,86.40
2022-10-21T11:07:52.635Z,86.00
2022-10-21T11:11:01.115Z,86.03
2022-10-21T11:14:03.242Z,85.90
2022-10-21T11:17:12.201Z,85.35
2022-10-21T11:20:39.451Z,84.38
2022-10-21T11:24:17.348Z,86.44
2022-10-21T11:27:27.711Z,86.30
2022-10-21T11:30:59.104Z,86.93
2022-10-21T11:34:13.647Z,86.60
2022-10-21T11:37:25.902Z,86.41
2022-10-21T11:40:40.434Z,86.39
2022-10-21T11:44:03.421Z,86.36
2022-10-21T11:47:35.559Z,86.13
2022-10-21T11:50:49.742Z,87.75
2022-10-21T11:54:11.996Z,86.76
2022-10-21T11:57:30.217Z,86.22
2022-10-21T12:01:25.907Z,86.03
2022-10-21T12:04:52.163Z,85.03
2022-10-21T12:08:16.006Z,84.58
2022-10-21T12:11:39.460Z,85.72
2022-10-21T12:15:19.882Z,85.11
2022-10-21T12:18:23.446Z,85.39
2022-10-21T12:21:28.970Z,86.47
2022-10-21T12:24:40.321Z,85.41
2022-10-21T12:28:04.543Z,85.23
2022-10-21T12:31:29.148Z,86.11
2022-10-21T12:34:31.212Z,86.69
2022-10-21T12:37:51.428Z,86.81
2022-10-21T12:41:24.455Z,87.63
2022-10-21T12:44:27.494Z,88.34
2022-10-21T12:47:35.551Z,87.52
2022-10-21T12:50:37.630Z,86.75
2022-10-21T12:53:56.734Z,86.86
2022-10-21T12:57:22.546Z,87.12
2022-10-21T13:00:27.842Z,86.94
2022-10-21T13:03:46.383Z,87.98
2022-10-21T13:06:54.165Z,86.35
2022-10-21T13:09:56.096Z,86.20
2022-10-21T13:13:29.019Z,85.06
2022-10-21T13:16:41.243Z,86.96
2022-10-21T13:19:43.345Z,85.12
2022-10-21T13:22:50.037Z,85.33
2022-10-21T13:26:14.712Z,86.74
2022-10-21T13:29:38.656Z,86.71
2022-10-21T13:32:41.589Z,87.19
2022-10-21T13:35:48.942Z,87.00
2022-10-21T13:38:52.682Z,87.50
2022-10-21T13:42:16.690Z,87.86
2022-10-21T13:45:28.715Z,87.64
2022-10-21T13:48:30.789Z,89.06
2022-10-21T13:51:35.275Z,88.53
2022-10-21T13:54:37.357Z,88.81
2022-10-21T13:57:40.369Z,89.51
2022-10-21T14:00:42.737Z,89.05
2022-10-21T14:03:45.322Z,88.83
2022-10-21T14:06:51.306Z,89.17
2022-10-21T14:09:55.858Z,88.28
2022-10-21T14:16:01.939Z,90.34
2022-10-21T14:19:17.436Z,88.15
2022-10-21T14:22:22.848Z,88.19
2022-10-21T14:25:24.918Z,87.49
2022-10-21T14:28:27.406Z,87.76
2022-10-21T14:31:29.582Z,86.48
2022-10-21T14:34:34.159Z,86.04
2022-10-21T14:38:15.465Z,84.63
2022-10-21T14:41:40.054Z,84.80
2022-10-21T14:44:43.181Z,84.63
2022-10-21T14:47:52.909Z,84.46
2022-10-21T14:51:01.571Z,85.46
2022-10-21T14:54:05.329Z,85.28
2022-10-21T14:57:44.075Z,85.29
2022-10-21T15:00:47.026Z,84.59
2022-10-21T15:03:57.952Z,83.71
2022-10-21T15:07:01.507Z,84.24
2022-10-21T15:10:03.462Z,83.57
2022-10-21T15:13:17.426Z,83.60
2022-10-21T15:16:19.510Z,85.30
2022-10-21T15:19:31.897Z,85.67
2022-10-21T15:22:34.697Z,85.79
2022-10-21T15:28:43.777Z,86.75
2022-10-21T15:31:45.887Z,86.08
2022-10-21T15:34:51.063Z,85.52
2022-10-21T15:37:53.547Z,85.95
2022-10-21T15:40:55.577Z,85.65
2022-10-21T15:44:02.521Z,86.21
2022-10-21T15:47:08.288Z,85.63
2022-10-21T15:50:15.625Z,85.53
2022-10-21T15:53:17.696Z,85.45
2022-10-21T15:56:19.873Z,86.57
2022-10-21T15:59:32.890Z,85.11
2022-10-21T16:02:39.493Z,85.79
2022-10-21T16:05:41.878Z,86.01
2022-10-21T16:08:44.183Z,86.39
2022-10-21T16:11:59.072Z,86.44
2022-10-21T16:15:01.762Z,86.79
2022-10-21T16:18:03.887Z,87.63
2022-10-21T16:21:06.178Z,87.35
2022-10-21T16:24:08.631Z,87.66
2022-10-21T16:27:12.602Z,87.92
2022-10-21T16:30:30.065Z,86.99
2022-10-21T16:33:32.246Z,87.73
2022-10-21T16:36:38.086Z,87.38
2022-10-21T16:39:40.178Z,87.32
2022-10-21T16:42:42.422Z,88.23
2022-10-21T16:45:44.628Z,88.05
2022-10-21T16:48:46.786Z,89.32
2022-10-21T16:51:49.110Z,89.01
2022-10-21T16:54:51.195Z,88.66
2022-10-21T16:57:53.333Z,88.46
2022-10-21T17:00:56.650Z,88.04
2022-10-21T17:04:03.920Z,88.43
2022-10-21T17:07:05.993Z,88.46
2022-10-21T17:10:08.840Z,87.97
2022-10-21T17:13:11.955Z,87.92
2022-10-21T17:16:14.102Z,87.61
2022-10-21T17:19:16.195Z,88.35
2022-10-21T17:22:18.329Z,88.34
2022-10-21T17:25:22.798Z,88.28
2022-10-21T17:28:24.887Z,88.55
2022-10-21T17:31:29.021Z,88.49
2022-10-21T17:34:33.810Z,87.71
2022-10-21T17:37:35.899Z,87.85
2022-10-21T17:40:37.997Z,87.62
2022-10-21T17:43:40.136Z,87.68
2022-10-21T17:46:42.405Z,87.88
2022-10-21T17:49:44.481Z,86.81
2022-10-21T17:52:46.653Z,86.19
2022-10-21T17:56:06.391Z,86.13
2022-10-21T17:59:08.617Z,85.04
2022-10-21T18:02:10.785Z,85.90
2022-10-21T18:05:12.882Z,85.76
2022-10-21T18:08:14.955Z,85.77
2022-10-21T18:11:18.670Z,86.52
2022-10-21T18:14:20.774Z,86.18
2022-10-21T18:17:22.804Z,86.51
2022-10-21T18:20:24.867Z,86.04
2022-10-21T18:23:26.885Z,86.10
2022-10-21T18:26:30.788Z,86.35
2022-10-21T18:29:34.269Z,86.59
2022-10-21T18:32:36.416Z,86.77
2022-10-21T18:35:39.055Z,86.39
2022-10-21T18:38:41.193Z,85.78
2022-10-21T18:41:43.325Z,86.49
2022-10-21T18:44:45.506Z,86.58
2022-10-21T18:47:47.650Z,87.32
2022-10-21T18:50:49.668Z,87.59
2022-10-21T18:53:52.938Z,86.87
2022-10-21T18:56:55.273Z,87.51
2022-10-21T18:59:57.831Z,87.52
2022-10-21T19:02:59.894Z,87.37
2022-10-21T19:06:41.063Z,87.81
2022-10-21T19:09:43.138Z,87.34
2022-10-21T19:12:45.648Z,87.40
2022-10-21T19:15:47.741Z,88.46
2022-10-21T19:18:50.011Z,88.17
2022-10-21T19:21:52.118Z,87.81
2022-10-21T19:24:54.197Z,88.46
2022-10-21T19:27:56.313Z,87.88
2022-10-21T19:30:58.346Z,88.57
2022-10-21T19:34:00.404Z,88.54
2022-10-21T19:37:02.564Z,88.09
2022-10-21T19:40:05.080Z,87.52
2022-10-21T19:43:07.118Z,87.70
2022-10-21T19:46:09.358Z,87.58
2022-10-21T19:49:13.031Z,86.83
2022-10-21T19:52:15.072Z,88.81
2022-10-21T19:55:19.048Z,88.57
2022-10-21T19:58:21.293Z,88.21
2022-10-21T20:01:25.401Z,87.49
2022-10-21T20:04:28.726Z,88.20
2022-10-21T20:07:38.653Z,89.39
2022-10-21T20:10:41.002Z,88.50
2022-10-21T20:13:43.194Z,88.25
2022-10-21T20:16:48.229Z,87.19
2022-10-21T20:19:50.610Z,86.72
2022-10-21T20:22:52.688Z,88.14
2022-10-21T20:25:56.978Z,88.94
2022-10-21T20:29:00.660Z,87.26
2022-10-21T20:32:02.977Z,87.09
2022-10-21T20:35:05.911Z,86.59
2022-10-21T20:38:09.334Z,85.70
2022-10-21T20:41:14.650Z,86.39
2022-10-21T20:44:16.822Z,85.59
2022-10-21T20:47:19.162Z,84.60
2022-10-21T20:50:21.223Z,86.25
2022-10-21T20:53:24.482Z,85.75
2022-10-21T20:56:33.691Z,86.94
2022-10-21T20:59:35.863Z,85.93
2022-10-21T21:02:38.055Z,83.99
2022-10-21T21:05:40.085Z,83.77
2022-10-21T21:08:48.758Z,84.38
2022-10-21T21:11:55.768Z,82.94
2022-10-21T21:14:57.855Z,83.13
2022-10-21T21:18:02.313Z,82.35
2022-10-21T21:21:06.846Z,82.05
2022-10-21T21:24:08.966Z,83.31
2022-10-21T21:27:11.065Z,83.48
2022-10-21T21:30:13.117Z,83.60
2022-10-21T21:33:15.160Z,83.23
2022-10-21T21:36:18.126Z,82.05
2022-10-21T21:39:20.158Z,81.48
2022-10-21T21:42:22.177Z,82.41
2022-10-21T21:45:24.234Z,81.42
2022-10-21T21:48:26.826Z,83.03
2022-10-21T21:51:29.564Z,82.45
2022-10-21T21:54:31.595Z,83.72
2022-10-21T21:57:33.676Z,83.70
2022-10-21T22:00:36.079Z,82.93
2022-10-21T22:03:38.263Z,83.54
2022-10-21T22:06:40.333Z,82.64
2022-10-21T22:09:42.380Z,82.41
2022-10-21T22:12:44.687Z,82.32
2022-10-21T22:15:48.620Z,81.64
2022-10-21T22:18:50.859Z,82.43
2022-10-21T22:21:52.915Z,82.25
2022-10-21T22:24:54.950Z,82.00
2022-10-21T22:27:56.975Z,81.17
2022-10-21T22:31:05.305Z,81.05
2022-10-21T22:34:10.916Z,81.39
2022-10-21T22:37:14.212Z,80.87
2022-10-21T22:40:16.296Z,80.13
2022-10-21T22:43:23.798Z,82.11
2022-10-21T22:46:41.209Z,81.21
2022-10-21T22:49:43.736Z,80.60
2022-10-21T22:52:45.790Z,80.00
2022-10-21T22:55:47.894Z,80.11
2022-10-21T22:58:49.913Z,80.25
2022-10-21T23:01:51.978Z,79.78
2022-10-21T23:04:59.094Z,80.96
2022-10-21T23:08:01.207Z,79.81
2022-10-21T23:11:03.232Z,81.10
2022-10-21T23:14:08.787Z,81.55
2022-10-21T23:17:11.154Z,80.94
2022-10-21T23:20:13.221Z,81.12
2022-10-21T23:23:15.245Z,82.39
2022-10-21T23:26:17.303Z,82.36
2022-10-21T23:29:19.331Z,82.25
2022-10-21T23:32:21.362Z,83.95
2022-10-21T23:35:23.826Z,83.41
2022-10-21T23:38:25.882Z,81.98
2022-10-21T23:41:28.326Z,83.28
2022-10-21T23:44:30.434Z,82.48
2022-10-21T23:47:32.583Z,83.11
2022-10-21T23:50:34.685Z,83.11
2022-10-21T23:53:36.713Z,82.58
2022-10-21T23:56:38.807Z,82.88
2022-10-21T23:59:40.843Z,82.98
